createdAt,value
2018-03-04T00:00:47.634Z,-1.35
2018-03-04T00:01:47.785Z,-1.31
2018-03-04T00:02:47.938Z,-1.35
2018-03-04T00:03:48.090Z,-1.34
2018-03-04T00:04:48.241Z,-1.40
2018-03-04T00:05:48.399Z,-1.49
2018-03-04T00:06:48.550Z,-1.48
2018-03-04T00:07:48.693Z,-1.49
2018-03-04T00:08:48.845Z,-1.43
2018-03-04T00:09:49.009Z,-1.52
2018-03-04T00:10:49.157Z,-1.77
2018-03-04T00:11:49.309Z,-1.76
2018-03-04T00:12:49.459Z,-1.88
2018-03-04T00:13:49.614Z,-1.80
2018-03-04T00:14:49.763Z,-1.85
2018-03-04T00:15:49.915Z,-1.74
2018-03-04T00:16:50.067Z,-1.77
2018-03-04T00:17:50.218Z,-1.80
2018-03-04T00:18:50.379Z,-1.66
2018-03-04T00:19:50.519Z,-1.64
2018-03-04T00:20:50.671Z,-1.58
2018-03-04T00:21:50.823Z,-1.62
2018-03-04T00:22:50.985Z,-1.80
2018-03-04T00:23:51.144Z,-1.79
2018-03-04T00:24:51.278Z,-1.80
2018-03-04T00:25:51.436Z,-1.76
2018-03-04T00:26:51.601Z,-1.79
2018-03-04T00:27:51.736Z,-1.76
2018-03-04T00:28:51.888Z,-1.64
2018-03-04T00:29:52.039Z,-1.72
2018-03-04T00:30:52.195Z,-1.67
2018-03-04T00:31:52.343Z,-1.59
2018-03-04T00:32:52.494Z,-1.62
2018-03-04T00:33:52.647Z,-1.58
2018-03-04T00:34:52.798Z,-1.59
2018-03-04T00:35:52.953Z,-1.54
2018-03-04T00:36:53.099Z,-1.49
2018-03-04T00:37:53.255Z,-1.45
2018-03-04T00:38:53.406Z,-1.55
2018-03-04T00:39:53.564Z,-1.54
2018-03-04T00:40:53.718Z,-1.51
2018-03-04T00:41:53.863Z,-1.54
2018-03-04T00:42:54.016Z,-1.41
2018-03-04T00:43:54.167Z,-1.48
2018-03-04T00:44:54.319Z,-1.43
2018-03-04T00:45:54.472Z,-1.54
2018-03-04T00:46:54.623Z,-1.48
2018-03-04T00:47:54.781Z,-1.59
2018-03-04T00:48:54.924Z,-1.72
2018-03-04T00:49:55.075Z,-1.84
2018-03-04T00:50:55.227Z,-1.88
2018-03-04T00:51:55.386Z,-1.87
2018-03-04T00:52:55.541Z,-1.90
2018-03-04T00:53:55.687Z,-1.92
2018-03-04T00:54:55.838Z,-1.94
2018-03-04T00:55:55.994Z,-1.92
2018-03-04T00:56:56.141Z,-1.95
2018-03-04T00:57:56.290Z,-1.98
2018-03-04T00:58:56.446Z,-2.02
2018-03-04T00:59:56.607Z,-2.00
2018-03-04T01:00:56.750Z,-1.92
2018-03-04T01:01:56.905Z,-2.05
2018-03-04T01:02:57.054Z,-2.08
2018-03-04T01:03:57.213Z,-2.10
2018-03-04T01:04:57.364Z,-1.98
2018-03-04T01:05:57.516Z,-1.98
2018-03-04T01:06:57.668Z,-1.97
2018-03-04T01:07:57.823Z,-2.08
2018-03-04T01:08:57.971Z,-1.88
2018-03-04T01:09:58.123Z,-2.06
2018-03-04T01:10:58.275Z,-2.05
2018-03-04T01:11:58.425Z,-2.06
2018-03-04T01:12:58.575Z,-2.00
2018-03-04T01:13:58.727Z,-2.00
2018-03-04T01:14:58.878Z,-1.92
2018-03-04T01:15:59.038Z,-1.97
2018-03-04T01:16:59.187Z,-1.82
2018-03-04T01:17:59.340Z,-1.84
2018-03-04T01:18:59.494Z,-1.77
2018-03-04T01:19:59.647Z,-1.79
2018-03-04T01:20:59.797Z,-1.70
2018-03-04T01:21:59.950Z,-1.64
2018-03-04T01:23:00.103Z,-1.70
2018-03-04T01:24:00.258Z,-1.66
2018-03-04T01:25:00.401Z,-1.73
2018-03-04T01:26:00.553Z,-1.76
2018-03-04T01:27:00.702Z,-1.66
2018-03-04T01:28:00.873Z,-1.77
2018-03-04T01:29:01.022Z,-1.70
2018-03-04T01:30:01.174Z,-1.62
2018-03-04T01:31:01.323Z,-1.55
2018-03-04T01:32:01.473Z,-1.61
2018-03-04T01:33:01.626Z,-1.55
2018-03-04T01:34:01.770Z,-1.54
2018-03-04T01:35:01.938Z,-1.74
2018-03-04T01:36:02.089Z,-1.79
2018-03-04T01:37:02.243Z,-1.84
2018-03-04T01:38:02.394Z,-1.84
2018-03-04T01:39:02.546Z,-1.88
2018-03-04T01:40:02.698Z,-1.90
2018-03-04T01:41:02.903Z,-1.77
2018-03-04T01:42:03.012Z,-1.84
2018-03-04T01:43:03.163Z,-1.72
2018-03-04T01:44:03.315Z,-1.64
2018-03-04T01:45:03.466Z,-1.77
2018-03-04T01:46:03.617Z,-1.73
2018-03-04T01:47:03.769Z,-1.85
2018-03-04T01:48:03.915Z,-1.80
2018-03-04T01:49:04.081Z,-1.74
2018-03-04T01:50:04.239Z,-1.69
2018-03-04T01:51:04.373Z,-1.58
2018-03-04T01:52:04.527Z,-1.59
2018-03-04T01:53:04.678Z,-1.52
2018-03-04T01:54:04.838Z,-1.64
2018-03-04T01:55:04.986Z,-1.61
2018-03-04T01:56:05.147Z,-1.61
2018-03-04T01:57:05.312Z,-1.61
2018-03-04T01:58:05.462Z,-1.79
2018-03-04T01:59:05.618Z,-1.80
2018-03-04T02:00:05.766Z,-1.85
2018-03-04T02:01:05.917Z,-1.79
2018-03-04T02:02:06.069Z,-1.79
2018-03-04T02:03:06.222Z,-1.70
2018-03-04T02:04:06.382Z,-1.70
2018-03-04T02:05:06.524Z,-1.61
2018-03-04T02:06:06.674Z,-1.43
2018-03-04T02:07:06.826Z,-1.58
2018-03-04T02:08:06.985Z,-1.48
2018-03-04T02:09:07.136Z,-1.48
2018-03-04T02:10:07.289Z,-1.40
2018-03-04T02:11:07.440Z,-1.51
2018-03-04T02:12:07.591Z,-1.40
2018-03-04T02:13:07.742Z,-1.58
2018-03-04T02:14:07.890Z,-1.40
2018-03-04T02:15:08.048Z,-1.55
2018-03-04T02:16:08.206Z,-1.56
2018-03-04T02:17:08.348Z,-1.54
2018-03-04T02:18:08.501Z,-1.46
2018-03-04T02:19:08.655Z,-1.45
2018-03-04T02:20:08.815Z,-1.54
2018-03-04T02:21:08.967Z,-1.48
2018-03-04T02:22:09.119Z,-1.59
2018-03-04T02:23:09.270Z,-1.40
2018-03-04T02:24:09.419Z,-1.49
2018-03-04T02:25:09.574Z,-1.51
2018-03-04T02:26:09.724Z,-1.56
2018-03-04T02:27:09.885Z,-1.62
2018-03-04T02:28:10.040Z,-1.59
2018-03-04T02:29:10.188Z,-1.66
2018-03-04T02:30:10.341Z,-1.64
2018-03-04T02:31:10.501Z,-1.66
2018-03-04T02:32:10.644Z,-1.66
2018-03-04T02:33:10.790Z,-1.56
2018-03-04T02:34:10.947Z,-1.52
2018-03-04T02:35:11.110Z,-1.52
2018-03-04T02:36:11.247Z,-1.40
2018-03-04T02:37:11.398Z,-1.40
2018-03-04T02:38:11.544Z,-1.35
2018-03-04T02:39:11.709Z,-1.37
2018-03-04T02:40:11.859Z,-1.22
2018-03-04T02:41:12.002Z,-1.27
2018-03-04T02:42:12.155Z,-1.17
2018-03-04T02:43:12.307Z,-1.23
2018-03-04T02:44:12.468Z,-1.19
2018-03-04T02:45:12.623Z,-1.27
2018-03-04T02:46:12.773Z,-1.19
2018-03-04T02:47:12.932Z,-1.27
2018-03-04T02:48:13.074Z,-1.23
2018-03-04T02:49:13.227Z,-1.19
2018-03-04T02:50:13.386Z,-1.30
2018-03-04T02:51:13.537Z,-1.22
2018-03-04T02:52:13.696Z,-1.15
2018-03-04T02:53:13.843Z,-1.15
2018-03-04T02:54:13.994Z,-1.12
2018-03-04T02:55:14.146Z,-1.20
2018-03-04T02:56:14.298Z,-1.15
2018-03-04T02:57:14.450Z,-1.22
2018-03-04T02:58:14.610Z,-1.17
2018-03-04T02:59:14.761Z,-1.19
2018-03-04T03:00:14.922Z,-1.27
2018-03-04T03:01:15.068Z,-1.23
2018-03-04T03:02:15.220Z,-1.23
2018-03-04T03:03:15.369Z,-1.12
2018-03-04T03:04:15.523Z,-1.09
2018-03-04T03:05:15.675Z,-1.12
2018-03-04T03:06:15.842Z,-1.19
2018-03-04T03:07:15.985Z,-1.22
2018-03-04T03:08:16.130Z,-1.23
2018-03-04T03:09:16.283Z,-1.27
2018-03-04T03:10:16.439Z,-1.37
2018-03-04T03:11:16.593Z,-1.43
2018-03-04T03:12:16.743Z,-1.54
2018-03-04T03:13:16.938Z,-1.45
2018-03-04T03:14:17.046Z,-1.54
2018-03-04T03:15:17.199Z,-1.51
2018-03-04T03:16:17.352Z,-1.49
2018-03-04T03:17:17.512Z,-1.54
2018-03-04T03:18:17.670Z,-1.49
2018-03-04T03:19:17.816Z,-1.54
2018-03-04T03:20:17.969Z,-1.46
2018-03-04T03:21:18.118Z,-1.40
2018-03-04T03:22:18.270Z,-1.34
2018-03-04T03:23:18.422Z,-1.33
2018-03-04T03:24:18.574Z,-1.35
2018-03-04T03:25:18.731Z,-1.34
2018-03-04T03:26:18.876Z,-1.43
2018-03-04T03:27:19.029Z,-1.31
2018-03-04T03:28:19.177Z,-1.22
2018-03-04T03:29:19.348Z,-1.27
2018-03-04T03:30:19.492Z,-1.19
2018-03-04T03:31:19.648Z,-1.10
2018-03-04T03:32:19.805Z,-1.16
2018-03-04T03:33:19.948Z,-1.16
2018-03-04T03:34:20.103Z,-1.17
2018-03-04T03:35:20.254Z,-1.05
2018-03-04T03:36:20.413Z,-1.13
2018-03-04T03:37:20.562Z,-1.16
2018-03-04T03:38:20.717Z,-1.20
2018-03-04T03:39:20.870Z,-1.33
2018-03-04T03:40:21.019Z,-1.25
2018-03-04T03:41:21.171Z,-1.25
2018-03-04T03:42:21.324Z,-1.28
2018-03-04T03:43:21.484Z,-1.20
2018-03-04T03:44:21.631Z,-1.33
2018-03-04T03:45:21.790Z,-1.27
2018-03-04T03:46:21.943Z,-1.30
2018-03-04T03:47:22.092Z,-1.20
2018-03-04T03:48:22.245Z,-1.15
2018-03-04T03:49:22.389Z,-1.31
2018-03-04T03:50:22.548Z,-1.23
2018-03-04T03:51:22.707Z,-1.31
2018-03-04T03:52:22.848Z,-1.17
2018-03-04T03:53:23.000Z,-1.12
2018-03-04T03:54:23.151Z,-1.12
2018-03-04T03:55:23.311Z,-1.16
2018-03-04T03:56:23.461Z,-1.09
2018-03-04T03:57:23.614Z,-1.13
2018-03-04T03:58:23.766Z,-0.99
2018-03-04T03:59:23.918Z,-1.04
2018-03-04T04:00:24.072Z,-0.92
2018-03-04T04:01:24.221Z,-0.95
2018-03-04T04:02:24.375Z,-0.91
2018-03-04T04:03:24.531Z,-0.85
2018-03-04T04:04:24.675Z,-1.07
2018-03-04T04:05:24.827Z,-0.95
2018-03-04T04:06:24.981Z,-0.95
2018-03-04T04:07:25.138Z,-0.94
2018-03-04T04:08:25.288Z,-0.92
2018-03-04T04:09:25.441Z,-0.95
2018-03-04T04:10:25.595Z,-0.99
2018-03-04T04:11:25.745Z,-0.92
2018-03-04T04:12:25.902Z,-1.02
2018-03-04T04:13:26.055Z,-1.04
2018-03-04T04:14:26.198Z,-1.09
2018-03-04T04:15:26.355Z,-0.99
2018-03-04T04:16:26.501Z,-0.94
2018-03-04T04:17:26.651Z,-0.99
2018-03-04T04:18:26.803Z,-0.94
2018-03-04T04:19:26.962Z,-0.94
2018-03-04T04:20:27.113Z,-0.82
2018-03-04T04:21:27.268Z,-0.83
2018-03-04T04:22:27.420Z,-0.80
2018-03-04T04:23:27.570Z,-0.92
2018-03-04T04:24:27.717Z,-0.92
2018-03-04T04:25:27.866Z,-0.97
2018-03-04T04:26:28.026Z,-1.15
2018-03-04T04:27:28.184Z,-1.09
2018-03-04T04:28:28.327Z,-1.17
2018-03-04T04:29:28.479Z,-1.13
2018-03-04T04:30:28.631Z,-1.07
2018-03-04T04:31:28.791Z,-1.16
2018-03-04T04:32:28.940Z,-1.05
2018-03-04T04:33:29.095Z,-1.04
2018-03-04T04:34:29.247Z,-0.97
2018-03-04T04:35:29.397Z,-0.95
2018-03-04T04:36:29.549Z,-0.89
2018-03-04T04:37:29.696Z,-0.91
2018-03-04T04:38:29.863Z,-0.92
2018-03-04T04:39:30.020Z,-0.97
2018-03-04T04:40:30.162Z,-0.91
2018-03-04T04:41:30.314Z,-0.91
2018-03-04T04:42:30.466Z,-0.94
2018-03-04T04:43:30.618Z,-0.91
2018-03-04T04:44:30.767Z,-0.95
2018-03-04T04:45:30.921Z,-0.86
2018-03-04T04:46:31.074Z,-0.78
2018-03-04T04:47:31.224Z,-0.86
2018-03-04T04:48:31.377Z,-0.80
2018-03-04T04:49:31.531Z,-0.78
2018-03-04T04:50:31.688Z,-0.99
2018-03-04T04:51:31.836Z,-0.97
2018-03-04T04:52:31.998Z,-1.07
2018-03-04T04:53:32.148Z,-1.16
2018-03-04T04:54:32.295Z,-1.19
2018-03-04T04:55:32.446Z,-1.19
2018-03-04T04:56:32.594Z,-1.35
2018-03-04T04:57:32.751Z,-1.30
2018-03-04T04:58:32.909Z,-1.25
2018-03-04T04:59:33.056Z,-1.23
2018-03-04T05:00:33.207Z,-1.16
2018-03-04T05:01:33.358Z,-1.12
2018-03-04T05:02:33.521Z,-1.04
2018-03-04T05:03:33.673Z,-1.07
2018-03-04T05:04:33.825Z,-0.95
2018-03-04T05:05:33.992Z,-0.91
2018-03-04T05:06:34.128Z,-0.83
2018-03-04T05:07:34.280Z,-0.86
2018-03-04T05:08:34.432Z,-0.86
2018-03-04T05:09:34.593Z,-0.76
2018-03-04T05:10:34.776Z,-0.70
2018-03-04T05:11:34.897Z,-0.73
2018-03-04T05:12:35.059Z,-0.75
2018-03-04T05:13:35.199Z,-0.58
2018-03-04T05:14:35.351Z,-0.65
2018-03-04T05:15:35.503Z,-0.52
2018-03-04T05:16:35.663Z,-0.54
2018-03-04T05:17:35.814Z,-0.51
2018-03-04T05:18:35.967Z,-0.42
2018-03-04T05:19:36.118Z,-0.37
2018-03-04T05:20:36.271Z,-0.39
2018-03-04T05:21:36.424Z,-0.46
2018-03-04T05:22:36.579Z,-0.39
2018-03-04T05:23:36.736Z,-0.36
2018-03-04T05:24:36.883Z,-0.40
2018-03-04T05:25:37.044Z,-0.43
2018-03-04T05:26:37.194Z,-0.43
2018-03-04T05:27:37.343Z,-0.47
2018-03-04T05:28:37.495Z,-0.42
2018-03-04T05:29:37.648Z,-0.39
2018-03-04T05:30:37.804Z,-0.42
2018-03-04T05:31:37.960Z,-0.42
2018-03-04T05:32:38.101Z,-0.55
2018-03-04T05:33:38.255Z,-0.54
2018-03-04T05:34:38.410Z,-0.51
2018-03-04T05:35:38.567Z,-0.47
2018-03-04T05:36:38.718Z,-0.51
2018-03-04T05:37:38.871Z,-0.47
2018-03-04T05:38:39.030Z,-0.49
2018-03-04T05:39:39.174Z,-0.52
2018-03-04T05:40:39.329Z,-0.51
2018-03-04T05:41:39.478Z,-0.46
2018-03-04T05:42:39.640Z,-0.57
2018-03-04T05:43:39.793Z,-0.52
2018-03-04T05:44:39.946Z,-0.60
2018-03-04T05:45:40.101Z,-0.54
2018-03-04T05:46:40.248Z,-0.55
2018-03-04T05:47:40.410Z,-0.51
2018-03-04T05:48:40.551Z,-0.52
2018-03-04T05:49:40.710Z,-0.54
2018-03-04T05:50:40.860Z,-0.37
2018-03-04T05:51:41.017Z,-0.31
2018-03-04T05:52:41.168Z,-0.26
2018-03-04T05:53:41.317Z,-0.26
2018-03-04T05:54:41.470Z,-0.31
2018-03-04T05:55:41.617Z,-0.28
2018-03-04T05:56:41.773Z,-0.26
2018-03-04T05:57:41.929Z,-0.28
2018-03-04T05:58:42.075Z,-0.23
2018-03-04T05:59:42.227Z,-0.25
2018-03-04T06:00:42.394Z,-0.25
2018-03-04T06:01:42.546Z,-0.31
2018-03-04T06:02:42.704Z,-0.25
2018-03-04T06:03:42.863Z,-0.28
2018-03-04T06:04:43.007Z,-0.37
2018-03-04T06:05:43.163Z,-0.43
2018-03-04T06:06:43.315Z,-0.42
2018-03-04T06:07:43.462Z,-0.55
2018-03-04T06:08:43.617Z,-0.60
2018-03-04T06:09:43.770Z,-0.55
2018-03-04T06:10:43.931Z,-0.61
2018-03-04T06:11:44.083Z,-0.54
2018-03-04T06:12:44.238Z,-0.62
2018-03-04T06:13:44.399Z,-0.61
2018-03-04T06:14:44.541Z,-0.58
2018-03-04T06:15:44.694Z,-0.61
2018-03-04T06:16:44.847Z,-0.52
2018-03-04T06:17:45.012Z,-0.47
2018-03-04T06:18:45.161Z,-0.39
2018-03-04T06:19:45.314Z,-0.39
2018-03-04T06:20:45.473Z,-0.28
2018-03-04T06:21:45.617Z,-0.31
2018-03-04T06:22:45.771Z,-0.29
2018-03-04T06:23:45.924Z,-0.28
2018-03-04T06:24:46.137Z,-0.25
2018-03-04T06:25:46.229Z,-0.23
2018-03-04T06:26:46.387Z,-0.25
2018-03-04T06:27:46.538Z,-0.16
2018-03-04T06:28:46.687Z,-0.14
2018-03-04T06:29:46.840Z,-0.10
2018-03-04T06:30:46.992Z,-0.15
2018-03-04T06:31:47.153Z,-0.23
2018-03-04T06:32:47.306Z,-0.29
2018-03-04T06:33:47.458Z,-0.33
2018-03-04T06:34:47.610Z,-0.31
2018-03-04T06:35:47.765Z,-0.31
2018-03-04T06:36:47.913Z,-0.29
2018-03-04T06:37:48.066Z,-0.26
2018-03-04T06:38:48.227Z,-0.25
2018-03-04T06:39:48.380Z,-0.21
2018-03-04T06:40:48.524Z,-0.14
2018-03-04T06:41:48.676Z,-0.11
2018-03-04T06:42:48.832Z,-0.25
2018-03-04T06:43:48.982Z,-0.11
2018-03-04T06:44:49.137Z,-0.29
2018-03-04T06:45:49.281Z,-0.11
2018-03-04T06:46:49.434Z,-0.18
2018-03-04T06:47:49.900Z,-0.14
2018-03-04T06:48:50.144Z,-0.18
2018-03-04T06:49:49.908Z,-0.14
2018-03-04T06:50:50.293Z,-0.07
2018-03-04T06:51:50.214Z,-0.16
2018-03-04T06:52:50.379Z,-0.26
2018-03-04T06:53:50.521Z,-0.31
2018-03-04T06:54:50.680Z,-0.34
2018-03-04T06:55:50.836Z,-0.29
2018-03-04T06:56:50.983Z,-0.31
2018-03-04T06:57:51.136Z,-0.23
2018-03-04T06:58:51.289Z,-0.28
2018-03-04T06:59:51.447Z,-0.34
2018-03-04T07:00:51.597Z,-0.28
2018-03-04T07:01:51.756Z,-0.16
2018-03-04T07:02:51.908Z,-0.15
2018-03-04T07:03:52.057Z,-0.08
2018-03-04T07:04:52.248Z,-0.01
2018-03-04T07:05:52.363Z,-0.03
2018-03-04T07:06:52.523Z,-0.10
2018-03-04T07:07:52.674Z,-0.14
2018-03-04T07:08:52.824Z,-0.19
2018-03-04T07:09:52.978Z,-0.08
2018-03-04T07:10:53.128Z,-0.16
2018-03-04T07:11:53.281Z,-0.10
2018-03-04T07:12:53.434Z,-0.29
2018-03-04T07:13:53.595Z,-0.25
2018-03-04T07:14:53.752Z,-0.21
2018-03-04T07:15:53.900Z,-0.34
2018-03-04T07:16:54.102Z,-0.34
2018-03-04T07:17:54.203Z,-0.33
2018-03-04T07:18:54.356Z,-0.23
2018-03-04T07:19:54.511Z,-0.16
2018-03-04T07:20:54.669Z,-0.05
2018-03-04T07:21:54.820Z,-0.22
2018-03-04T07:22:54.976Z,-0.15
2018-03-04T07:23:55.128Z,-0.10
2018-03-04T07:24:55.278Z,0.03
2018-03-04T07:25:55.431Z,-0.08
2018-03-04T07:26:55.588Z,0.04
2018-03-04T07:27:55.743Z,-0.05
2018-03-04T07:28:55.895Z,-0.08
2018-03-04T07:29:56.048Z,-0.10
2018-03-04T07:30:56.201Z,0.03
2018-03-04T07:31:56.351Z,0.02
2018-03-04T07:32:56.512Z,0.15
2018-03-04T07:33:56.649Z,0.17
2018-03-04T07:34:56.801Z,0.14
2018-03-04T07:35:56.965Z,0.02
2018-03-04T07:36:57.105Z,0.15
2018-03-04T07:37:57.258Z,0.23
2018-03-04T07:38:57.413Z,0.10
2018-03-04T07:39:57.571Z,0.13
2018-03-04T07:40:57.723Z,0.17
2018-03-04T07:41:57.868Z,0.15
2018-03-04T07:42:58.020Z,0.24
2018-03-04T07:43:58.173Z,0.21
2018-03-04T07:44:58.326Z,0.31
2018-03-04T07:45:58.482Z,0.32
2018-03-04T07:46:58.633Z,0.42
2018-03-04T07:47:58.788Z,0.38
2018-03-04T07:48:58.936Z,0.29
2018-03-04T07:49:59.086Z,0.35
2018-03-04T07:50:59.239Z,0.38
2018-03-04T07:51:59.398Z,0.50
2018-03-04T07:52:59.555Z,0.53
2018-03-04T07:53:59.703Z,0.55
2018-03-04T07:54:59.869Z,0.55
2018-03-04T07:56:00.008Z,0.53
2018-03-04T07:57:00.160Z,0.50
2018-03-04T07:58:00.313Z,0.49
2018-03-04T07:59:00.477Z,0.50
2018-03-04T08:00:02.852Z,0.55
2018-03-04T08:01:00.773Z,0.58
2018-03-04T08:02:00.924Z,0.62
2018-03-04T08:03:01.080Z,0.70
2018-03-04T08:04:01.237Z,0.65
2018-03-04T08:05:01.383Z,0.70
2018-03-04T08:06:01.528Z,0.65
2018-03-04T08:07:01.690Z,0.57
2018-03-04T08:08:01.838Z,0.68
2018-03-04T08:09:01.982Z,0.60
2018-03-04T08:10:02.131Z,0.69
2018-03-04T08:11:02.295Z,0.62
2018-03-04T08:12:02.448Z,0.78
2018-03-04T08:13:02.601Z,0.87
2018-03-04T08:14:02.759Z,0.87
2018-03-04T08:15:02.906Z,0.84
2018-03-04T08:16:03.063Z,0.86
2018-03-04T08:17:03.213Z,0.90
2018-03-04T08:18:03.375Z,0.91
2018-03-04T08:19:03.528Z,0.91
2018-03-04T08:20:03.690Z,0.83
2018-03-04T08:21:03.842Z,0.86
2018-03-04T08:22:03.997Z,0.87
2018-03-04T08:23:04.158Z,0.94
2018-03-04T08:24:04.302Z,0.94
2018-03-04T08:25:04.455Z,0.90
2018-03-04T08:26:04.609Z,0.86
2018-03-04T08:27:04.766Z,0.78
2018-03-04T08:28:04.915Z,0.79
2018-03-04T08:29:05.073Z,0.79
2018-03-04T08:30:05.231Z,0.97
2018-03-04T08:31:05.378Z,0.98
2018-03-04T08:32:05.532Z,1.04
2018-03-04T08:33:05.707Z,1.12
2018-03-04T08:34:05.864Z,1.15
2018-03-04T08:35:06.014Z,1.09
2018-03-04T08:36:06.170Z,1.14
2018-03-04T08:37:06.321Z,1.12
2018-03-04T08:38:06.481Z,1.16
2018-03-04T08:39:06.635Z,1.23
2018-03-04T08:40:06.789Z,1.18
2018-03-04T08:41:06.950Z,1.40
2018-03-04T08:42:07.094Z,1.34
2018-03-04T08:43:07.247Z,1.36
2018-03-04T08:44:07.400Z,1.36
2018-03-04T08:45:07.556Z,1.37
2018-03-04T08:46:07.711Z,1.47
2018-03-04T08:47:07.865Z,1.36
2018-03-04T08:48:08.022Z,1.41
2018-03-04T08:49:08.168Z,1.37
2018-03-04T08:50:08.322Z,1.36
2018-03-04T08:51:08.476Z,1.29
2018-03-04T08:52:08.631Z,1.36
2018-03-04T08:53:08.780Z,1.24
2018-03-04T08:54:08.938Z,1.41
2018-03-04T08:55:09.096Z,1.42
2018-03-04T08:56:09.243Z,1.50
2018-03-04T08:57:09.398Z,1.45
2018-03-04T08:58:09.551Z,1.58
2018-03-04T08:59:09.704Z,1.58
2018-03-04T09:00:09.867Z,1.63
2018-03-04T09:01:09.997Z,1.62
2018-03-04T09:02:10.154Z,1.62
2018-03-04T09:03:10.308Z,1.72
2018-03-04T09:04:10.462Z,1.87
2018-03-04T09:05:10.610Z,1.99
2018-03-04T09:06:10.776Z,1.98
2018-03-04T09:07:10.929Z,2.03
2018-03-04T09:08:11.085Z,1.98
2018-03-04T09:09:11.244Z,1.98
2018-03-04T09:10:11.391Z,2.12
2018-03-04T09:11:11.545Z,2.16
2018-03-04T09:12:11.699Z,2.21
2018-03-04T09:13:11.854Z,2.21
2018-03-04T09:14:12.000Z,2.30
2018-03-04T09:15:12.163Z,2.35
2018-03-04T09:16:12.318Z,2.35
2018-03-04T09:17:12.466Z,2.43
2018-03-04T09:18:12.620Z,2.49
2018-03-04T09:19:12.775Z,2.49
2018-03-04T09:20:12.929Z,2.60
2018-03-04T09:21:13.076Z,2.64
2018-03-04T09:22:13.246Z,2.66
2018-03-04T09:23:13.400Z,2.64
2018-03-04T09:24:13.555Z,2.64
2018-03-04T09:25:13.714Z,2.69
2018-03-04T09:26:13.886Z,2.66
2018-03-04T09:27:14.015Z,2.67
2018-03-04T09:28:14.169Z,2.71
2018-03-04T09:29:14.326Z,2.79
2018-03-04T09:30:14.481Z,2.97
2018-03-04T09:31:14.645Z,3.02
2018-03-04T09:32:14.799Z,3.14
2018-03-04T09:33:14.965Z,3.24
2018-03-04T09:34:15.119Z,3.32
2018-03-04T09:35:15.273Z,3.47
2018-03-04T09:36:15.430Z,3.47
2018-03-04T09:37:15.576Z,3.55
2018-03-04T09:38:15.730Z,3.72
2018-03-04T09:39:15.887Z,3.87
2018-03-04T09:40:16.042Z,3.90
2018-03-04T09:41:16.191Z,3.84
2018-03-04T09:42:16.363Z,3.73
2018-03-04T09:43:16.519Z,3.80
2018-03-04T09:44:16.700Z,3.90
2018-03-04T09:45:16.836Z,3.91
2018-03-04T09:46:17.000Z,3.87
2018-03-04T09:47:17.156Z,3.90
2018-03-04T09:48:17.311Z,3.97
2018-03-04T09:49:17.470Z,3.87
2018-03-04T09:50:17.617Z,3.98
2018-03-04T09:51:17.774Z,4.08
2018-03-04T09:52:17.928Z,4.04
2018-03-04T09:53:18.085Z,4.09
2018-03-04T09:54:18.238Z,4.11
2018-03-04T09:55:18.398Z,4.11
2018-03-04T09:56:18.553Z,4.06
2018-03-04T09:57:18.723Z,4.20
2018-03-04T09:58:18.873Z,4.04
2018-03-04T09:59:19.028Z,4.14
2018-03-04T10:00:19.199Z,4.23
2018-03-04T10:01:19.340Z,4.29
2018-03-04T10:02:19.497Z,4.30
2018-03-04T10:03:19.657Z,4.34
2018-03-04T10:04:19.815Z,4.37
2018-03-04T10:05:19.968Z,4.32
2018-03-04T10:06:20.123Z,4.29
2018-03-04T10:07:20.280Z,4.22
2018-03-04T10:08:20.437Z,4.27
2018-03-04T10:09:20.593Z,4.32
2018-03-04T10:10:20.756Z,4.42
2018-03-04T10:11:20.912Z,4.55
2018-03-04T10:12:21.080Z,4.54
2018-03-04T10:13:21.234Z,4.60
2018-03-04T10:14:21.398Z,4.70
2018-03-04T10:15:21.552Z,4.69
2018-03-04T10:16:21.719Z,4.89
2018-03-04T10:17:21.876Z,4.78
2018-03-04T10:18:22.041Z,4.85
2018-03-04T10:19:22.199Z,4.97
2018-03-04T10:20:22.377Z,4.92
2018-03-04T10:21:22.517Z,4.86
2018-03-04T10:22:22.685Z,4.82
2018-03-04T10:23:22.842Z,4.96
2018-03-04T10:24:23.007Z,4.89
2018-03-04T10:25:23.155Z,4.86
2018-03-04T10:26:23.328Z,4.88
2018-03-04T10:27:23.484Z,4.92
2018-03-04T10:28:23.654Z,4.96
2018-03-04T10:29:23.808Z,4.99
2018-03-04T10:30:23.970Z,5.02
2018-03-04T10:31:24.121Z,4.97
2018-03-04T10:32:24.291Z,4.94
2018-03-04T10:33:24.448Z,4.85
2018-03-04T10:34:24.612Z,4.82
2018-03-04T10:35:24.765Z,4.96
2018-03-04T10:36:24.934Z,5.02
2018-03-04T10:37:25.087Z,4.99
2018-03-04T10:38:25.257Z,5.03
2018-03-04T10:39:25.410Z,5.07
2018-03-04T10:40:25.577Z,5.13
2018-03-04T10:41:25.735Z,5.18
2018-03-04T10:42:25.899Z,5.25
2018-03-04T10:43:26.050Z,5.18
2018-03-04T10:44:26.220Z,5.17
2018-03-04T10:45:26.377Z,5.13
2018-03-04T10:46:26.543Z,5.15
2018-03-04T10:47:26.699Z,5.02
2018-03-04T10:48:26.863Z,4.99
2018-03-04T10:49:27.021Z,5.00
2018-03-04T10:50:27.169Z,5.03
2018-03-04T10:51:27.330Z,5.00
2018-03-04T10:52:27.490Z,4.84
2018-03-04T10:53:27.639Z,4.91
2018-03-04T10:54:27.796Z,4.85
2018-03-04T10:55:27.953Z,4.94
2018-03-04T10:56:28.116Z,4.97
2018-03-04T10:57:28.267Z,4.96
2018-03-04T10:58:28.424Z,5.07
2018-03-04T10:59:28.582Z,5.03
2018-03-04T11:00:28.733Z,5.09
2018-03-04T11:01:28.906Z,5.13
2018-03-04T11:02:29.066Z,5.27
2018-03-04T11:03:29.227Z,5.28
2018-03-04T11:04:29.391Z,5.25
2018-03-04T11:05:29.531Z,5.24
2018-03-04T11:06:29.690Z,5.35
2018-03-04T11:07:29.843Z,5.28
2018-03-04T11:08:29.999Z,5.42
2018-03-04T11:09:30.157Z,5.43
2018-03-04T11:10:30.314Z,5.36
2018-03-04T11:11:30.504Z,5.46
2018-03-04T11:12:30.628Z,5.40
2018-03-04T11:13:30.786Z,5.38
2018-03-04T11:14:30.945Z,5.42
2018-03-04T11:15:31.098Z,5.40
2018-03-04T11:16:31.262Z,5.17
2018-03-04T11:17:31.416Z,5.33
2018-03-04T11:18:31.587Z,5.36
2018-03-04T11:19:31.744Z,5.56
2018-03-04T11:20:31.957Z,5.60
2018-03-04T11:21:32.058Z,5.68
2018-03-04T11:22:32.234Z,5.76
2018-03-04T11:23:32.390Z,5.94
2018-03-04T11:24:32.548Z,5.94
2018-03-04T11:25:32.706Z,5.94
2018-03-04T11:26:32.876Z,5.86
2018-03-04T11:27:33.026Z,5.82
2018-03-04T11:28:33.237Z,5.93
2018-03-04T11:29:33.350Z,5.93
2018-03-04T11:30:33.513Z,5.93
2018-03-04T11:31:33.671Z,5.97
2018-03-04T11:32:33.833Z,5.96
2018-03-04T11:33:33.987Z,6.06
2018-03-04T11:34:34.165Z,5.91
2018-03-04T11:35:34.320Z,5.85
2018-03-04T11:36:34.481Z,5.93
2018-03-04T11:37:34.639Z,5.89
2018-03-04T11:38:34.802Z,6.00
2018-03-04T11:39:34.963Z,6.06
2018-03-04T11:40:35.119Z,6.11
2018-03-04T11:41:35.277Z,6.19
2018-03-04T11:42:35.442Z,6.12
2018-03-04T11:43:35.601Z,6.21
2018-03-04T11:44:35.768Z,6.25
2018-03-04T11:45:35.923Z,6.31
2018-03-04T11:46:36.093Z,6.28
2018-03-04T11:47:36.249Z,6.33
2018-03-04T11:48:36.407Z,6.34
2018-03-04T11:49:36.565Z,6.61
2018-03-04T11:50:36.727Z,6.62
2018-03-04T11:51:36.886Z,6.71
2018-03-04T11:52:37.052Z,6.69
2018-03-04T11:53:37.208Z,6.62
2018-03-04T11:54:37.375Z,6.66
2018-03-04T11:55:37.530Z,6.84
2018-03-04T11:56:37.691Z,6.87
2018-03-04T11:57:37.849Z,7.05
2018-03-04T11:58:38.016Z,7.03
2018-03-04T11:59:38.175Z,7.15
2018-03-04T12:00:38.333Z,7.17
2018-03-04T12:01:38.493Z,7.39
2018-03-04T12:02:38.656Z,7.30
2018-03-04T12:03:38.814Z,7.43
2018-03-04T12:04:38.981Z,7.49
2018-03-04T12:05:39.139Z,7.49
2018-03-04T12:06:39.298Z,7.49
2018-03-04T12:07:39.456Z,7.52
2018-03-04T12:08:39.619Z,7.39
2018-03-04T12:09:39.795Z,7.42
2018-03-04T12:10:39.970Z,7.42
2018-03-04T12:11:40.107Z,7.46
2018-03-04T12:12:40.268Z,7.49
2018-03-04T12:13:40.427Z,7.48
2018-03-04T12:14:40.640Z,7.63
2018-03-04T12:15:40.747Z,7.68
2018-03-04T12:16:40.906Z,7.72
2018-03-04T12:17:41.065Z,7.75
2018-03-04T12:18:41.228Z,7.64
2018-03-04T12:19:41.387Z,7.69
2018-03-04T12:20:41.549Z,7.71
2018-03-04T12:21:41.702Z,7.75
2018-03-04T12:22:41.871Z,7.82
2018-03-04T12:23:42.030Z,7.75
2018-03-04T12:24:42.191Z,7.74
2018-03-04T12:25:42.351Z,7.82
2018-03-04T12:26:42.513Z,7.93
2018-03-04T12:27:42.672Z,7.92
2018-03-04T12:28:42.835Z,7.95
2018-03-04T12:29:42.988Z,8.00
2018-03-04T12:30:43.156Z,8.04
2018-03-04T12:31:43.320Z,8.02
2018-03-04T12:32:43.477Z,7.95
2018-03-04T12:33:43.640Z,7.95
2018-03-04T12:34:43.798Z,7.82
2018-03-04T12:35:43.958Z,7.79
2018-03-04T12:36:44.181Z,7.82
2018-03-04T12:37:44.281Z,7.87
2018-03-04T12:38:44.442Z,7.83
2018-03-04T12:39:44.606Z,7.97
2018-03-04T12:40:44.766Z,8.00
2018-03-04T12:41:44.922Z,8.07
2018-03-04T12:42:45.085Z,7.98
2018-03-04T12:43:45.244Z,8.01
2018-03-04T12:44:45.411Z,8.01
2018-03-04T12:45:45.566Z,7.87
2018-03-04T12:46:45.727Z,7.95
2018-03-04T12:47:45.886Z,7.90
2018-03-04T12:48:46.049Z,7.82
2018-03-04T12:49:46.210Z,7.89
2018-03-04T12:50:46.371Z,7.87
2018-03-04T12:51:46.524Z,7.90
2018-03-04T12:52:46.694Z,7.93
2018-03-04T12:53:46.853Z,7.85
2018-03-04T12:54:47.014Z,7.67
2018-03-04T12:55:47.165Z,7.75
2018-03-04T12:56:47.349Z,7.74
2018-03-04T12:57:47.497Z,7.67
2018-03-04T12:58:47.656Z,7.75
2018-03-04T12:59:47.817Z,7.86
2018-03-04T13:00:47.979Z,7.95
2018-03-04T13:01:48.148Z,8.05
2018-03-04T13:02:48.299Z,8.26
2018-03-04T13:03:48.459Z,8.18
2018-03-04T13:04:48.621Z,8.29
2018-03-04T13:05:48.782Z,8.47